Time;durP1;ratioP1;P1;durP2;ratioP2;P2;SDS_P1;SDS_P2;PMS_P1;PMS_P2;Temp;Humidity;BMP_temperature;BMP_pressure;BME280_temperature;BME280_humidity;BME280_pressure;Samples;Min_cycle;Max_cycle;Signal;HPM_P1;HPM_P2
2022/05/13 00:00:12;;;;;;;4.75;2.22;;;;;;;;;;5035190;28;20474;-76
2022/05/13 00:02:37;;;;;;;3.95;2.40;;;;;;;;;;5049360;28;20025;-78
2022/05/13 00:05:04;;;;;;;5.10;2.40;;;;;;;;;;5049765;28;20052;-78
2022/05/13 00:07:30;;;;;;;5.03;2.20;;;;;;;;;;5034649;28;20487;-77
2022/05/13 00:10:05;;;;;;;6.32;2.30;;;;;;;;;;5034536;28;20063;-77
2022/05/13 00:12:34;;;;;;;4.95;2.35;;;;;;;;;;5035051;28;20457;-77
2022/05/13 00:15:02;;;;;;;4.88;2.00;;;;;;;;;;5032669;28;20377;-77
2022/05/13 00:17:29;;;;;;;2.50;2.30;;;;;;;;;;5032506;28;20112;-77
2022/05/13 00:19:55;;;;;;;7.20;2.40;;;;;;;;;;5034328;28;20538;-77
2022/05/13 00:22:20;;;;;;;6.53;2.30;;;;;;;;;;5034673;28;20441;-77
2022/05/13 00:24:47;;;;;;;6.63;2.22;;;;;;;;;;5032581;28;20061;-79
2022/05/13 00:27:12;;;;;;;7.43;2.45;;;;;;;;;;5034396;28;20033;-77
2022/05/13 00:29:38;;;;;;;6.63;3.05;;;;;;;;;;5032675;28;20029;-77
2022/05/13 00:32:04;;;;;;;4.75;1.80;;;;;;;;;;5032789;28;20032;-77
2022/05/13 00:34:31;;;;;;;3.95;2.75;;;;;;;;;;5033035;28;20082;-78
2022/05/13 00:36:56;;;;;;;4.50;2.30;;;;;;;;;;5041558;28;20052;-76
2022/05/13 00:39:22;;;;;;;8.32;2.97;;;;;;;;;;5035817;28;20029;-76
2022/05/13 00:41:47;;;;;;;8.32;2.33;;;;;;;;;;5035375;28;20031;-75
2022/05/13 00:44:14;;;;;;;5.15;2.00;;;;;;;;;;5035522;28;20505;-76
2022/05/13 00:46:39;;;;;;;7.18;3.05;;;;;;;;;;5035627;28;20029;-79
2022/05/13 00:49:10;;;;;;;5.75;2.60;;;;;;;;;;5034748;28;20079;-76
2022/05/13 00:51:40;;;;;;;12.75;5.10;;;;;;;;;;5034412;28;20063;-77
2022/05/13 00:54:07;;;;;;;10.43;7.40;;;;;;;;;;5053694;28;20084;-76
2022/05/13 00:56:34;;;;;;;3.28;2.47;;;;;;;;;;5035191;28;20033;-76
2022/05/13 00:59:03;;;;;;;6.18;2.42;;;;;;;;;;5053254;28;20028;-78
2022/05/13 01:01:29;;;;;;;3.55;2.50;;;;;;;;;;5053548;28;20029;-77
2022/05/13 01:04:01;;;;;;;6.90;2.40;;;;;;;;;;5053249;28;20029;-77
2022/05/13 01:06:26;;;;;;;;;;;;;;;;;;5035616;28;20025;-75
2022/05/13 01:08:52;;;;;;;5.60;2.47;;;;;;;;;;5052413;28;19909;-75
2022/05/13 01:11:21;;;;;;;4.00;2.38;;;;;;;;;;5053407;28;20086;-77
2022/05/13 01:13:51;;;;;;;5.25;2.20;;;;;;;;;;5035031;28;20504;-76
2022/05/13 01:16:17;;;;;;;6.57;2.17;;;;;;;;;;5035635;28;20036;-77
2022/05/13 01:18:43;;;;;;;3.58;1.95;;;;;;;;;;5035545;28;20116;-74
2022/05/13 01:21:13;;;;;;;4.03;2.33;;;;;;;;;;5052533;28;20444;-76
2022/05/13 01:23:44;;;;;;;9.25;2.65;;;;;;;;;;5052768;28;20047;-75
2022/05/13 01:26:11;;;;;;;4.43;2.63;;;;;;;;;;5052937;28;20037;-79
2022/05/13 01:28:47;;;;;;;3.65;2.50;;;;;;;;;;5053222;28;20082;-76
2022/05/13 01:31:22;;;;;;;3.38;2.40;;;;;;;;;;5035061;28;20082;-77
2022/05/13 01:33:49;;;;;;;3.78;2.13;;;;;;;;;;5053253;28;20029;-78
2022/05/13 01:36:15;;;;;;;6.70;2.10;;;;;;;;;;5034616;28;20025;-76
2022/05/13 01:38:42;;;;;;;7.78;2.40;;;;;;;;;;5051224;28;20319;-78
2022/05/13 01:41:09;;;;;;;5.47;2.35;;;;;;;;;;5034396;28;20036;-77
2022/05/13 01:43:36;;;;;;;6.60;3.78;;;;;;;;;;5051382;28;20443;-76
2022/05/13 01:46:04;;;;;;;6.15;3.13;;;;;;;;;;5052064;28;20377;-77
2022/05/13 01:48:30;;;;;;;6.03;3.10;;;;;;;;;;5050790;28;20028;-76
2022/05/13 01:50:56;;;;;;;8.60;3.25;;;;;;;;;;5051776;28;20484;-78
2022/05/13 01:53:21;;;;;;;6.55;3.22;;;;;;;;;;5051234;28;20041;-74
2022/05/13 01:55:48;;;;;;;4.88;3.08;;;;;;;;;;5052284;28;20025;-77
2022/05/13 01:58:16;;;;;;;4.15;2.80;;;;;;;;;;5052136;28;20036;-77
2022/05/13 02:00:43;;;;;;;4.30;3.10;;;;;;;;;;5034187;28;20029;-76
2022/05/13 02:05:53;;;;;;;8.05;2.47;;;;;;;;;;5052694;28;20036;-76
2022/05/13 02:08:18;;;;;;;6.82;2.65;;;;;;;;;;5034920;28;20028;-77
2022/05/13 02:10:44;;;;;;;6.53;2.33;;;;;;;;;;5052658;28;20051;-77
2022/05/13 02:13:11;;;;;;;3.50;2.58;;;;;;;;;;5050407;28;20116;-78
2022/05/13 02:15:36;;;;;;;4.45;2.58;;;;;;;;;;5052024;28;20032;-79
2022/05/13 02:18:03;;;;;;;8.88;3.53;;;;;;;;;;5033871;28;20035;-76
2022/05/13 02:20:28;;;;;;;6.07;2.42;;;;;;;;;;5034177;28;20128;-78
2022/05/13 02:22:54;;;;;;;8.00;2.63;;;;;;;;;;5033567;28;20544;-76
2022/05/13 02:25:19;;;;;;;5.72;2.80;;;;;;;;;;5052279;28;20111;-76
2022/05/13 02:27:45;;;;;;;5.68;2.65;;;;;;;;;;5052065;28;20033;-78
2022/05/13 02:30:12;;;;;;;3.40;2.30;;;;;;;;;;5051596;28;20029;-75
2022/05/13 02:32:37;;;;;;;4.65;2.72;;;;;;;;;;5051873;28;20056;-78
2022/05/13 02:35:04;;;;;;;5.15;2.42;;;;;;;;;;5033575;28;20135;-75
2022/05/13 02:37:30;;;;;;;3.78;2.85;;;;;;;;;;5049806;28;20132;-77
2022/05/13 02:39:56;;;;;;;5.85;2.60;;;;;;;;;;5033514;28;20557;-76
2022/05/13 02:42:22;;;;;;;5.68;2.65;;;;;;;;;;5033649;28;20025;-77
2022/05/13 02:44:48;;;;;;;5.93;2.80;;;;;;;;;;5051813;28;20082;-77
2022/05/13 02:47:13;;;;;;;4.90;3.83;;;;;;;;;;5033870;28;20458;-76
2022/05/13 02:49:39;;;;;;;9.15;2.88;;;;;;;;;;5052372;28;20036;-77
2022/05/13 02:52:05;;;;;;;4.45;2.88;;;;;;;;;;5034196;28;20029;-78
2022/05/13 02:54:31;;;;;;;18.63;3.05;;;;;;;;;;5051729;28;20025;-76
2022/05/13 02:56:56;;;;;;;8.68;3.13;;;;;;;;;;5050866;28;20404;-77
2022/05/13 02:59:22;;;;;;;5.03;2.85;;;;;;;;;;5051629;28;20072;-77
2022/05/13 03:01:47;;;;;;;5.93;2.97;;;;;;;;;;5052144;28;20523;-77
2022/05/13 03:04:13;;;;;;;6.68;2.80;;;;;;;;;;5052045;28;20489;-77
2022/05/13 03:06:39;;;;;;;10.32;8.35;;;;;;;;;;5052584;28;20033;-77
2022/05/13 03:09:04;;;;;;;4.80;2.95;;;;;;;;;;5050851;28;20028;-76
2022/05/13 03:11:30;;;;;;;9.50;3.03;;;;;;;;;;5051807;28;20339;-78
2022/05/13 03:13:56;;;;;;;10.15;2.67;;;;;;;;;;5034369;28;20040;-79
2022/05/13 03:16:24;;;;;;;5.85;2.63;;;;;;;;;;5055534;28;20437;-78
2022/05/13 03:18:53;;;;;;;6.38;2.50;;;;;;;;;;5037779;28;20120;-78
2022/05/13 03:21:19;;;;;;;5.60;2.72;;;;;;;;;;5054408;28;20029;-77
2022/05/13 03:23:46;;;;;;;4.90;2.47;;;;;;;;;;5055479;28;20033;-76
2022/05/13 03:26:14;;;;;;;3.70;2.88;;;;;;;;;;5037858;28;20029;-76
2022/05/13 03:28:41;;;;;;;6.13;3.22;;;;;;;;;;5053662;28;20063;-76
2022/05/13 03:31:06;;;;;;;9.27;2.95;;;;;;;;;;5055310;28;20032;-77
2022/05/13 03:33:32;;;;;;;5.68;2.90;;;;;;;;;;5055389;28;20025;-77
2022/05/13 03:35:58;;;;;;;5.72;2.78;;;;;;;;;;5053977;28;20025;-77
2022/05/13 03:38:23;;;;;;;7.50;3.42;;;;;;;;;;5054950;28;20052;-76
2022/05/13 03:40:49;;;;;;;4.88;2.85;;;;;;;;;;5053639;28;20501;-81
2022/05/13 03:43:16;;;;;;;4.50;3.00;;;;;;;;;;5055108;28;20086;-76
2022/05/13 03:45:42;;;;;;;5.38;2.88;;;;;;;;;;5053660;28;20029;-76
2022/05/13 03:48:08;;;;;;;4.32;2.72;;;;;;;;;;5052923;28;20392;-76
2022/05/13 03:50:36;;;;;;;5.22;2.80;;;;;;;;;;5054762;28;20033;-75
2022/05/13 03:53:03;;;;;;;3.90;2.90;;;;;;;;;;5054766;28;20024;-77
2022/05/13 03:55:29;;;;;;;4.10;2.60;;;;;;;;;;5053180;28;20421;-77
2022/05/13 03:57:55;;;;;;;5.30;3.13;;;;;;;;;;5055195;28;20024;-76
2022/05/13 04:00:21;;;;;;;5.00;3.17;;;;;;;;;;5054583;28;20020;-79
2022/05/13 04:02:47;;;;;;;4.13;3.13;;;;;;;;;;5054808;28;20333;-78
2022/05/13 04:10:41;;;;;;;7.60;4.55;;;;;;;;;;5054816;28;20507;-78
2022/05/13 04:16:07;;;;;;;5.80;3.00;;;;;;;;;;5053886;28;20059;-77
2022/05/13 04:18:39;;;;;;;3.80;3.05;;;;;;;;;;5036320;28;20441;-78
2022/05/13 04:21:11;;;;;;;6.13;3.40;;;;;;;;;;5036195;28;20032;-76
2022/05/13 04:23:39;;;;;;;7.47;3.25;;;;;;;;;;5054164;28;20033;-78
2022/05/13 04:26:04;;;;;;;8.77;3.38;;;;;;;;;;5052735;28;20037;-77
2022/05/13 04:28:30;;;;;;;6.63;2.75;;;;;;;;;;5054086;28;20025;-78
2022/05/13 04:30:58;;;;;;;5.03;2.70;;;;;;;;;;5052346;28;20393;-77
2022/05/13 04:33:24;;;;;;;14.18;9.88;;;;;;;;;;5052452;28;20021;-77
2022/05/13 04:35:49;;;;;;;8.40;3.22;;;;;;;;;;5054007;28;20047;-77
2022/05/13 04:38:15;;;;;;;6.82;3.08;;;;;;;;;;5054418;28;20076;-77
2022/05/13 04:40:41;;;;;;;7.47;2.97;;;;;;;;;;5052780;28;20044;-77
2022/05/13 04:43:07;;;;;;;3.63;2.60;;;;;;;;;;5053764;28;20020;-76
2022/05/13 04:45:33;;;;;;;4.18;3.20;;;;;;;;;;5052338;28;20025;-77
2022/05/13 04:48:21;;;;;;;6.25;3.22;;;;;;;;;;5052385;28;20033;-77
2022/05/13 04:50:53;;;;;;;4.55;3.35;;;;;;;;;;5053620;28;20028;-77
2022/05/13 04:53:26;;;;;;;4.93;2.95;;;;;;;;;;5054285;28;20039;-79
2022/05/13 04:55:53;;;;;;;12.90;5.50;;;;;;;;;;5035366;28;20037;-76
2022/05/13 04:58:19;;;;;;;4.07;2.80;;;;;;;;;;5051815;28;20116;-76
2022/05/13 05:00:47;;;;;;;6.47;3.55;;;;;;;;;;5051659;28;20025;-75
2022/05/13 05:03:14;;;;;;;5.28;2.72;;;;;;;;;;5052344;28;20552;-77
2022/05/13 05:05:42;;;;;;;6.40;3.20;;;;;;;;;;5051931;28;20029;-76
2022/05/13 05:08:08;;;;;;;6.78;2.88;;;;;;;;;;5052000;28;20044;-76
2022/05/13 05:10:33;;;;;;;3.38;2.72;;;;;;;;;;5051462;28;20062;-77
2022/05/13 05:13:00;;;;;;;6.07;2.80;;;;;;;;;;5035114;28;20478;-77
2022/05/13 05:15:27;;;;;;;6.22;2.95;;;;;;;;;;5034382;28;20024;-77
2022/05/13 05:17:52;;;;;;;8.23;2.67;;;;;;;;;;5051122;28;20451;-77
2022/05/13 05:20:20;;;;;;;5.07;3.60;;;;;;;;;;5034514;28;20023;-76
2022/05/13 05:22:47;;;;;;;4.45;3.28;;;;;;;;;;5034390;28;20482;-75
2022/05/13 05:25:16;;;;;;;6.88;3.70;;;;;;;;;;5050804;28;20020;-77
2022/05/13 05:27:42;;;;;;;9.98;3.53;;;;;;;;;;5032279;28;20025;-76
2022/05/13 05:30:09;;;;;;;4.78;3.30;;;;;;;;;;5052393;28;20025;-77
2022/05/13 05:32:38;;;;;;;5.43;3.15;;;;;;;;;;5051347;28;20048;-78
2022/05/13 05:35:09;;;;;;;5.30;4.20;;;;;;;;;;5048047;28;20029;-76
2022/05/13 05:37:35;;;;;;;8.30;4.22;;;;;;;;;;5029723;28;20044;-76
2022/05/13 05:40:01;;;;;;;11.73;4.10;;;;;;;;;;5024074;28;20041;-76
2022/05/13 05:42:27;;;;;;;10.40;3.80;;;;;;;;;;5050108;28;20037;-77
2022/05/13 05:44:53;;;;;;;10.40;4.57;;;;;;;;;;5040286;28;20726;-76
2022/05/13 05:47:22;;;;;;;7.18;3.53;;;;;;;;;;5044987;28;20536;-74
2022/05/13 05:49:48;;;;;;;8.25;3.88;;;;;;;;;;5042078;28;20610;-75
2022/05/13 05:52:14;;;;;;;12.93;4.10;;;;;;;;;;5048357;28;20078;-76
2022/05/13 05:57:26;;;;;;;8.63;3.25;;;;;;;;;;5036665;28;20040;-77
2022/05/13 05:59:52;;;;;;;5.88;3.40;;;;;;;;;;5045583;28;20099;-77
2022/05/13 06:02:17;;;;;;;4.95;3.50;;;;;;;;;;5048100;28;20036;-76
2022/05/13 06:04:43;;;;;;;13.15;5.15;;;;;;;;;;5044245;28;20036;-78
2022/05/13 06:07:13;;;;;;;7.95;3.60;;;;;;;;;;5049715;28;20067;-79
2022/05/13 06:09:40;;;;;;;10.23;4.30;;;;;;;;;;5042191;28;20039;-78
2022/05/13 06:12:07;;;;;;;8.68;3.65;;;;;;;;;;5046006;28;20032;-76
2022/05/13 06:14:34;;;;;;;7.18;3.88;;;;;;;;;;5044923;28;20028;-78
2022/05/13 06:17:00;;;;;;;8.98;3.92;;;;;;;;;;5030058;28;20112;-77
2022/05/13 06:19:26;;;;;;;8.00;3.72;;;;;;;;;;5044337;28;20079;-76
2022/05/13 06:21:53;;;;;;;7.57;3.40;;;;;;;;;;5045092;28;20465;-77
2022/05/13 06:24:19;;;;;;;12.38;3.60;;;;;;;;;;5035065;28;20037;-76
2022/05/13 06:26:48;;;;;;;4.28;3.08;;;;;;;;;;5031579;28;21239;-75
2022/05/13 06:29:21;;;;;;;8.57;3.42;;;;;;;;;;5045541;28;20024;-81
2022/05/13 06:31:47;;;;;;;8.15;3.55;;;;;;;;;;5047257;28;20142;-77
2022/05/13 06:34:14;;;;;;;5.82;3.13;;;;;;;;;;5045720;28;20698;-79
2022/05/13 06:36:40;;;;;;;10.77;4.00;;;;;;;;;;5038407;28;20029;-77
2022/05/13 06:39:07;;;;;;;5.75;2.92;;;;;;;;;;5041281;28;21558;-80
2022/05/13 06:41:37;;;;;;;8.73;3.65;;;;;;;;;;5046424;28;20106;-77
2022/05/13 06:44:07;;;;;;;5.00;3.47;;;;;;;;;;5047584;28;20616;-79
2022/05/13 06:46:35;;;;;;;8.85;3.70;;;;;;;;;;5042544;28;20155;-83
2022/05/13 06:49:04;;;;;;;15.60;5.00;;;;;;;;;;5045420;28;20032;-81
2022/05/13 06:51:31;;;;;;;5.38;3.53;;;;;;;;;;5047574;28;20624;-79
2022/05/13 06:54:03;;;;;;;8.27;3.05;;;;;;;;;;5049960;28;20040;-79
2022/05/13 06:56:33;;;;;;;5.88;4.07;;;;;;;;;;5046157;28;20033;-78
2022/05/13 06:59:00;;;;;;;6.75;3.28;;;;;;;;;;5042555;28;20028;-79
2022/05/13 07:01:26;;;;;;;6.50;3.00;;;;;;;;;;5028186;28;20112;-79
2022/05/13 07:03:51;;;;;;;8.13;3.03;;;;;;;;;;5035814;28;20029;-79
2022/05/13 07:06:17;;;;;;;3.60;2.80;;;;;;;;;;5049682;28;20027;-81
2022/05/13 07:08:42;;;;;;;5.20;2.50;;;;;;;;;;5042569;28;20094;-77
2022/05/13 07:11:08;;;;;;;7.50;2.97;;;;;;;;;;5048335;28;20036;-78
2022/05/13 07:13:34;;;;;;;7.63;2.70;;;;;;;;;;5050947;28;20028;-80
2022/05/13 07:16:00;;;;;;;5.20;2.63;;;;;;;;;;5050806;28;20074;-80
2022/05/13 07:18:27;;;;;;;7.57;2.85;;;;;;;;;;5043127;28;21062;-78
2022/05/13 07:20:52;;;;;;;9.52;2.58;;;;;;;;;;5033016;28;20116;-79
2022/05/13 07:23:18;;;;;;;8.10;2.92;;;;;;;;;;5049926;28;20100;-82
2022/05/13 07:25:44;;;;;;;6.40;3.13;;;;;;;;;;5048663;28;20649;-80
2022/05/13 07:28:10;;;;;;;4.75;2.65;;;;;;;;;;5041732;28;20067;-79
2022/05/13 07:30:37;;;;;;;4.82;2.53;;;;;;;;;;5030873;28;20028;-78
2022/05/13 07:33:04;;;;;;;5.07;2.72;;;;;;;;;;5049834;28;20037;-77
2022/05/13 07:35:31;;;;;;;6.45;2.67;;;;;;;;;;5046804;28;20025;-77
2022/05/13 07:38:00;;;;;;;6.22;2.60;;;;;;;;;;5042944;28;20052;-82
2022/05/13 07:43:10;;;;;;;7.63;2.03;;;;;;;;;;5049193;28;20376;-79
2022/05/13 07:45:36;;;;;;;5.95;2.78;;;;;;;;;;5044703;28;20033;-77
2022/05/13 07:48:02;;;;;;;3.67;2.30;;;;;;;;;;5043065;28;20060;-78
2022/05/13 07:50:30;;;;;;;4.63;2.40;;;;;;;;;;5045270;28;20492;-80
2022/05/13 07:52:56;;;;;;;3.42;2.67;;;;;;;;;;5049017;28;20561;-78
2022/05/13 07:55:22;;;;;;;5.30;2.70;;;;;;;;;;5037489;28;20044;-78
2022/05/13 07:57:48;;;;;;;3.47;2.67;;;;;;;;;;5042731;28;20025;-78
2022/05/13 08:00:25;;;;;;;3.58;2.70;;;;;;;;;;5047104;28;20568;-80
2022/05/13 08:02:58;;;;;;;9.13;2.45;;;;;;;;;;5050121;28;20176;-80
2022/05/13 08:05:26;;;;;;;8.25;2.63;;;;;;;;;;5052017;28;20074;-79
2022/05/13 08:07:59;;;;;;;6.50;2.85;;;;;;;;;;5029719;28;20108;-79
2022/05/13 08:10:25;;;;;;;4.05;2.50;;;;;;;;;;5040418;28;20056;-81
2022/05/13 08:12:51;;;;;;;5.10;2.60;;;;;;;;;;5015552;28;20179;-80
2022/05/13 08:15:16;;;;;;;9.77;2.55;;;;;;;;;;5048126;28;20024;-79
2022/05/13 08:17:48;;;;;;;5.78;2.22;;;;;;;;;;5046430;28;20032;-81
2022/05/13 08:20:13;;;;;;;;;;;;;;;;;;5044083;28;20576;-81
2022/05/13 08:22:39;;;;;;;3.92;2.28;;;;;;;;;;5048895;28;19952;-77
2022/05/13 08:25:05;;;;;;;4.70;2.10;;;;;;;;;;5047425;28;20148;-80
2022/05/13 08:27:32;;;;;;;7.60;2.38;;;;;;;;;;5042451;28;20037;-80
2022/05/13 08:30:04;;;;;;;3.35;1.75;;;;;;;;;;5044054;28;20024;-80
2022/05/13 08:32:32;;;;;;;6.43;2.20;;;;;;;;;;5045813;28;20444;-79
2022/05/13 08:34:58;;;;;;;2.75;2.00;;;;;;;;;;5047909;28;20067;-78
2022/05/13 08:37:23;;;;;;;4.30;2.17;;;;;;;;;;5039533;28;20081;-79
2022/05/13 08:39:49;;;;;;;6.05;1.73;;;;;;;;;;5043604;28;20029;-78
2022/05/13 08:42:17;;;;;;;9.48;1.90;;;;;;;;;;5045352;28;20040;-81
2022/05/13 08:44:43;;;;;;;6.97;1.73;;;;;;;;;;5046273;28;20143;-77
2022/05/13 08:47:52;;;;;;;8.20;2.25;;;;;;;;;;5046648;28;20056;-80
2022/05/13 08:50:18;;;;;;;4.90;1.75;;;;;;;;;;5015244;28;20083;-79
2022/05/13 08:53:08;;;;;;;3.63;1.83;;;;;;;;;;5041211;28;20068;-78
2022/05/13 08:55:47;;;;;;;5.10;2.05;;;;;;;;;;5046111;28;20087;-80
2022/05/13 08:58:27;;;;;;;5.50;2.25;;;;;;;;;;5045018;28;20039;-80
2022/05/13 09:00:57;;;;;;;5.57;2.08;;;;;;;;;;5046104;28;20361;-79
2022/05/13 09:04:02;;;;;;;;;;;;;;;;;;;;;
2022/05/13 09:07:02;;;;;;;9.88;2.25;;;;;;;;;;5041996;28;20033;-79
2022/05/13 09:09:29;;;;;;;28.92;7.03;;;;;;;;;;5042395;28;20495;-78
2022/05/13 09:12:18;;;;;;;9.00;2.35;;;;;;;;;;5046023;28;20116;-78
2022/05/13 09:15:12;;;;;;;5.25;2.25;;;;;;;;;;5045420;28;20036;-78
2022/05/13 09:17:46;;;;;;;9.55;2.00;;;;;;;;;;5018778;28;20036;-79
2022/05/13 09:20:15;;;;;;;7.90;1.95;;;;;;;;;;5042096;28;20902;-78
2022/05/13 09:22:44;;;;;;;5.22;1.90;;;;;;;;;;5044374;28;20464;-77
2022/05/13 09:25:54;;;;;;;3.45;1.70;;;;;;;;;;5042610;28;20040;-80
2022/05/13 09:28:20;;;;;;;4.95;1.55;;;;;;;;;;5038796;28;20526;-78
2022/05/13 09:30:48;;;;;;;10.02;2.03;;;;;;;;;;5043312;28;20025;-80
2022/05/13 09:33:24;;;;;;;4.63;1.75;;;;;;;;;;5050854;28;20033;-78
2022/05/13 09:35:55;;;;;;;6.88;2.22;;;;;;;;;;5044497;28;20066;-78
2022/05/13 09:38:25;;;;;;;6.80;1.80;;;;;;;;;;5043445;28;20555;-78
2022/05/13 09:41:10;;;;;;;9.25;2.47;;;;;;;;;;5045426;28;20119;-79
2022/05/13 09:43:36;;;;;;;4.13;1.98;;;;;;;;;;5049081;28;20033;-77
2022/05/13 09:46:08;;;;;;;2.55;1.27;;;;;;;;;;5049027;28;20029;-81
2022/05/13 09:48:37;;;;;;;6.53;1.63;;;;;;;;;;5043719;28;20040;-80
2022/05/13 09:51:37;;;;;;;3.22;1.55;;;;;;;;;;5047361;28;20041;-79
2022/05/13 09:54:13;;;;;;;4.05;2.00;;;;;;;;;;5049811;28;20104;-81
2022/05/13 09:56:47;;;;;;;2.90;1.40;;;;;;;;;;5045741;28;20033;-79
2022/05/13 09:59:21;;;;;;;3.00;1.73;;;;;;;;;;5024339;28;20068;-80
2022/05/13 10:01:47;;;;;;;3.78;1.95;;;;;;;;;;5044589;28;20047;-81
2022/05/13 10:04:23;;;;;;;7.32;2.33;;;;;;;;;;5044960;28;20043;-79
2022/05/13 10:06:50;;;;;;;5.47;2.00;;;;;;;;;;5041311;28;20083;-81
2022/05/13 10:15:43;;;;;;;5.72;1.50;;;;;;;;;;5040186;28;20114;-78
2022/05/13 10:18:26;;;;;;;4.22;1.30;;;;;;;;;;5035170;28;20045;-79
2022/05/13 10:21:02;;;;;;;4.45;1.48;;;;;;;;;;5046324;28;20369;-82
2022/05/13 10:23:40;;;;;;;5.30;2.00;;;;;;;;;;5042106;28;20555;-80
2022/05/13 10:26:10;;;;;;;2.13;1.35;;;;;;;;;;5041352;28;20548;-78
2022/05/13 10:28:40;;;;;;;2.92;1.63;;;;;;;;;;5054779;28;20028;-79
2022/05/13 10:31:17;;;;;;;4.78;1.70;;;;;;;;;;5048674;28;20503;-79
2022/05/13 10:33:53;;;;;;;9.30;1.77;;;;;;;;;;5054326;28;20029;-80
2022/05/13 10:36:23;;;;;;;3.47;1.40;;;;;;;;;;5055193;28;20100;-80
2022/05/13 10:39:01;;;;;;;4.10;1.50;;;;;;;;;;5074701;28;20486;-79
2022/05/13 10:41:35;;;;;;;9.95;2.10;;;;;;;;;;5057109;28;20302;-80
2022/05/13 10:44:16;;;;;;;5.70;1.65;;;;;;;;;;5056549;28;20443;-78
2022/05/13 10:46:50;;;;;;;4.70;1.50;;;;;;;;;;5075251;28;20028;-79
2022/05/13 10:49:19;;;;;;;3.15;1.52;;;;;;;;;;5057797;28;20407;-78
2022/05/13 10:52:09;;;;;;;3.17;2.08;;;;;;;;;;5057927;28;20024;-79
2022/05/13 10:54:52;;;;;;;4.72;1.60;;;;;;;;;;5075137;28;20380;-78
2022/05/13 10:57:34;;;;;;;4.50;1.40;;;;;;;;;;5045750;28;20029;-80
2022/05/13 11:00:11;;;;;;;5.03;1.60;;;;;;;;;;5057302;28;20025;-81
2022/05/13 11:02:50;;;;;;;8.55;1.88;;;;;;;;;;5057037;28;20465;-79
2022/05/13 11:05:39;;;;;;;7.07;3.67;;;;;;;;;;5055948;28;20013;-79
2022/05/13 11:08:19;;;;;;;4.75;1.65;;;;;;;;;;5056053;28;20100;-79
2022/05/13 11:10:56;;;;;;;2.33;1.20;;;;;;;;;;5055723;28;20020;-77
2022/05/13 11:13:52;;;;;;;1.90;1.27;;;;;;;;;;5056317;28;20033;-79
2022/05/13 11:16:26;;;;;;;5.60;1.48;;;;;;;;;;5054210;28;20028;-81
2022/05/13 11:19:05;;;;;;;4.25;1.23;;;;;;;;;;5053302;28;20029;-78
2022/05/13 11:21:38;;;;;;;4.32;1.20;;;;;;;;;;5053799;28;20037;-78
2022/05/13 11:27:18;;;;;;;4.68;1.40;;;;;;;;;;5053822;28;20297;-78
2022/05/13 11:30:11;;;;;;;7.78;1.63;;;;;;;;;;5053791;28;20017;-79
2022/05/13 11:33:14;;;;;;;9.35;1.40;;;;;;;;;;5051435;28;20082;-79
2022/05/13 11:36:12;;;;;;;4.53;1.35;;;;;;;;;;5059210;28;20017;-80
2022/05/13 11:38:47;;;;;;;3.42;1.80;;;;;;;;;;5030705;28;20045;-80
2022/05/13 11:41:16;;;;;;;2.83;1.30;;;;;;;;;;5018339;28;20128;-80
2022/05/13 11:43:57;;;;;;;2.97;1.50;;;;;;;;;;5033824;28;20101;-78
2022/05/13 11:46:31;;;;;;;5.47;1.38;;;;;;;;;;5033696;28;20389;-80
2022/05/13 11:49:08;;;;;;;7.18;1.60;;;;;;;;;;5032795;28;20017;-77
2022/05/13 11:51:35;;;;;;;3.15;1.30;;;;;;;;;;5033811;28;20493;-79
2022/05/13 11:54:01;;;;;;;4.97;1.40;;;;;;;;;;5015978;28;20033;-76
2022/05/13 11:56:32;;;;;;;3.40;1.60;;;;;;;;;;5032029;28;20556;-80
2022/05/13 11:59:11;;;;;;;6.50;1.42;;;;;;;;;;5031437;28;20021;-78
2022/05/13 12:01:46;;;;;;;3.75;1.25;;;;;;;;;;5031688;28;20060;-80
2022/05/13 12:04:11;;;;;;;1.75;0.98;;;;;;;;;;5031800;28;20087;-77
2022/05/13 12:06:52;;;;;;;5.90;1.40;;;;;;;;;;5033599;28;20477;-77
2022/05/13 12:09:25;;;;;;;2.58;0.90;;;;;;;;;;5033519;28;20409;-80
2022/05/13 12:11:56;;;;;;;2.78;1.15;;;;;;;;;;5033956;28;20022;-78
2022/05/13 12:14:31;;;;;;;10.90;1.90;;;;;;;;;;5016056;28;20040;-80
2022/05/13 12:17:04;;;;;;;4.20;1.05;;;;;;;;;;5023021;28;20048;-77
2022/05/13 12:20:07;;;;;;;3.15;1.00;;;;;;;;;;5031942;28;20832;-80
2022/05/13 12:22:44;;;;;;;4.93;1.23;;;;;;;;;;5033136;28;20049;-80
2022/05/13 12:25:32;;;;;;;3.13;1.02;;;;;;;;;;5032952;28;20029;-81
2022/05/13 12:28:05;;;;;;;3.30;1.52;;;;;;;;;;5032935;28;20083;-81
2022/05/13 12:30:35;;;;;;;3.38;1.10;;;;;;;;;;5029691;28;20438;-79
2022/05/13 12:33:20;;;;;;;8.60;1.58;;;;;;;;;;5032447;28;20029;-78
2022/05/13 12:39:13;;;;;;;6.38;1.20;;;;;;;;;;5049124;28;20075;-79
2022/05/13 12:41:51;;;;;;;2.67;1.00;;;;;;;;;;5052887;28;20028;-78
2022/05/13 12:44:32;;;;;;;7.13;1.55;;;;;;;;;;5034736;28;20043;-79
2022/05/13 12:47:14;;;;;;;3.22;0.98;;;;;;;;;;5058776;28;20028;-77
2022/05/13 12:49:48;;;;;;;5.25;1.45;;;;;;;;;;5052610;28;20012;-78
2022/05/13 12:52:22;;;;;;;3.92;1.17;;;;;;;;;;5052587;28;20064;-77
2022/05/13 12:55:04;;;;;;;4.43;1.15;;;;;;;;;;5052780;28;20025;-77
2022/05/13 12:57:52;;;;;;;2.60;1.30;;;;;;;;;;5053673;28;20492;-79
2022/05/13 13:00:42;;;;;;;3.13;1.10;;;;;;;;;;5052895;28;20021;-78
2022/05/13 13:03:10;;;;;;;7.05;1.20;;;;;;;;;;5033680;28;20025;-80
2022/05/13 13:05:38;;;;;;;2.13;1.00;;;;;;;;;;5034954;28;20547;-80
2022/05/13 13:08:19;;;;;;;2.25;1.00;;;;;;;;;;5052051;28;20109;-79
2022/05/13 13:11:23;;;;;;;2.92;0.82;;;;;;;;;;5052155;28;20025;-77
2022/05/13 13:14:05;;;;;;;3.45;1.50;;;;;;;;;;5031562;28;20116;-78
2022/05/13 13:16:47;;;;;;;14.60;1.25;;;;;;;;;;5018007;28;20192;-79
2022/05/13 13:19:14;;;;;;;5.93;1.20;;;;;;;;;;5045032;28;20021;-78
2022/05/13 13:21:41;;;;;;;3.40;1.45;;;;;;;;;;5050800;28;20115;-78
2022/05/13 13:24:25;;;;;;;2.85;1.00;;;;;;;;;;5052655;28;20029;-78
2022/05/13 13:26:51;;;;;;;4.20;1.13;;;;;;;;;;5051837;28;20469;-77
2022/05/13 13:29:23;;;;;;;1.20;1.00;;;;;;;;;;5051991;28;20028;-78
2022/05/13 13:31:51;;;;;;;5.72;1.40;;;;;;;;;;5056859;28;20028;-78
2022/05/13 13:34:36;;;;;;;6.65;1.10;;;;;;;;;;5051367;28;20027;-78
2022/05/13 13:37:06;;;;;;;5.40;1.27;;;;;;;;;;5052883;28;20056;-76
2022/05/13 13:39:32;;;;;;;3.10;1.10;;;;;;;;;;5051486;28;20098;-77
2022/05/13 13:42:04;;;;;;;2.83;1.10;;;;;;;;;;5034828;28;20059;-78
2022/05/13 13:44:30;;;;;;;4.90;0.90;;;;;;;;;;5053987;28;20029;-78
2022/05/13 13:46:56;;;;;;;2.70;1.10;;;;;;;;;;5051851;28;20419;-79
2022/05/13 13:49:34;;;;;;;7.70;1.30;;;;;;;;;;5053372;28;20083;-77
2022/05/13 13:52:05;;;;;;;3.00;0.90;;;;;;;;;;5050627;28;20055;-78
2022/05/13 13:54:35;;;;;;;;;;;;;;;;;;5050473;28;20106;-78
2022/05/13 13:57:24;;;;;;;2.47;0.90;;;;;;;;;;5051899;28;20323;-77
2022/05/13 14:00:10;;;;;;;3.97;0.82;;;;;;;;;;5052081;28;20523;-79
2022/05/13 14:02:38;;;;;;;2.60;0.98;;;;;;;;;;5049534;28;20040;-78
2022/05/13 14:05:31;;;;;;;2.53;0.70;;;;;;;;;;5051431;28;20079;-78
2022/05/13 14:07:57;;;;;;;4.70;1.00;;;;;;;;;;5042936;28;20405;-79
2022/05/13 14:10:34;;;;;;;8.25;1.20;;;;;;;;;;5051130;28;20028;-78
2022/05/13 14:13:05;;;;;;;2.45;1.38;;;;;;;;;;5051283;28;20032;-79
2022/05/13 14:15:34;;;;;;;3.35;1.13;;;;;;;;;;5033278;28;20392;-80
2022/05/13 14:18:00;;;;;;;6.15;0.90;;;;;;;;;;5051657;28;20087;-79
2022/05/13 14:20:38;;;;;;;2.55;1.08;;;;;;;;;;5051074;28;20358;-79
2022/05/13 14:23:16;;;;;;;4.72;0.80;;;;;;;;;;5037189;28;20025;-79
2022/05/13 14:25:56;;;;;;;6.32;1.17;;;;;;;;;;5051435;28;20381;-79
2022/05/13 14:28:30;;;;;;;7.22;1.13;;;;;;;;;;5050991;28;20469;-80
2022/05/13 14:31:11;;;;;;;3.63;1.05;;;;;;;;;;5049319;28;20029;-79
2022/05/13 14:33:48;;;;;;;4.55;0.95;;;;;;;;;;5032063;28;20478;-78
2022/05/13 14:36:14;;;;;;;1.23;0.98;;;;;;;;;;5032508;28;20078;-78
2022/05/13 14:41:44;;;;;;;16.50;1.23;;;;;;;;;;5052630;28;20052;-79
2022/05/13 14:44:12;;;;;;;10.50;1.15;;;;;;;;;;5051506;28;20036;-80
2022/05/13 14:46:38;;;;;;;4.32;1.25;;;;;;;;;;5047227;28;20429;-79
2022/05/13 14:49:29;;;;;;;2.22;1.08;;;;;;;;;;5031749;28;20025;-79
2022/05/13 14:51:57;;;;;;;3.25;0.80;;;;;;;;;;5031825;28;20104;-80
2022/05/13 14:54:25;;;;;;;2.55;0.90;;;;;;;;;;5046429;28;20055;-80
2022/05/13 14:56:55;;;;;;;6.90;1.00;;;;;;;;;;5030082;28;20037;-78
2022/05/13 14:59:34;;;;;;;4.25;0.88;;;;;;;;;;5030541;28;20025;-80
2022/05/13 15:02:01;;;;;;;9.27;1.27;;;;;;;;;;5041972;28;20104;-78
2022/05/13 15:04:28;;;;;;;4.85;1.00;;;;;;;;;;5050216;28;20317;-79
2022/05/13 15:06:54;;;;;;;5.68;1.27;;;;;;;;;;5051987;28;20032;-79
2022/05/13 15:09:21;;;;;;;3.88;0.93;;;;;;;;;;5051523;28;20021;-79
2022/05/13 15:11:55;;;;;;;5.72;1.02;;;;;;;;;;5054697;28;20029;-78
2022/05/13 15:14:25;;;;;;;6.20;1.52;;;;;;;;;;5054164;28;20480;-79
2022/05/13 15:16:51;;;;;;;4.72;1.10;;;;;;;;;;5059349;28;20445;-77
2022/05/13 15:19:26;;;;;;;3.60;0.88;;;;;;;;;;5054479;28;20102;-78
2022/05/13 15:22:00;;;;;;;4.00;1.05;;;;;;;;;;5037129;28;20388;-79
2022/05/13 15:24:27;;;;;;;11.02;1.27;;;;;;;;;;5053428;28;20033;-78
2022/05/13 15:26:54;;;;;;;4.03;1.13;;;;;;;;;;5053680;28;20025;-79
2022/05/13 15:29:20;;;;;;;2.08;0.90;;;;;;;;;;5053195;28;20465;-76
2022/05/13 15:31:46;;;;;;;22.05;1.20;;;;;;;;;;5036878;28;20036;-80
2022/05/13 15:34:12;;;;;;;6.93;1.30;;;;;;;;;;5036121;28;20035;-79
2022/05/13 15:36:40;;;;;;;4.63;1.25;;;;;;;;;;5055333;28;20376;-80